createdAt,value
2023-04-26T00:02:27.591Z,5.50
2023-04-26T00:05:02.463Z,5.50
2023-04-26T00:07:32.790Z,5.50
2023-04-26T00:10:02.846Z,5.50
2023-04-26T00:12:32.854Z,5.40
2023-04-26T00:15:02.865Z,5.40
2023-04-26T00:17:33.106Z,5.40
2023-04-26T00:20:09.335Z,5.40
2023-04-26T00:22:39.938Z,5.30
2023-04-26T00:25:11.374Z,5.30
2023-04-26T00:27:41.408Z,5.30
2023-04-26T00:30:13.465Z,5.30
2023-04-26T00:32:43.486Z,5.20
2023-04-26T00:35:16.398Z,5.20
2023-04-26T00:37:46.493Z,5.20
2023-04-26T00:40:17.503Z,5.20
2023-04-26T00:42:47.468Z,5.20
2023-04-26T00:45:17.689Z,5.20
2023-04-26T00:47:47.882Z,5.20
2023-04-26T00:50:20.623Z,5.10
2023-04-26T00:52:50.907Z,5.10
2023-04-26T00:55:23.443Z,5.10
2023-04-26T00:57:53.468Z,5.10
2023-04-26T01:00:23.533Z,5.10
2023-04-26T01:02:54.087Z,5.10
2023-04-26T01:05:26.958Z,5.10
2023-04-26T01:07:57.908Z,5.00
2023-04-26T01:10:28.564Z,5.00
2023-04-26T01:12:58.965Z,5.00
2023-04-26T01:15:30.646Z,5.00
2023-04-26T01:18:00.723Z,5.00
2023-04-26T01:20:33.424Z,4.90
2023-04-26T01:23:06.317Z,4.90
2023-04-26T01:25:36.780Z,4.90
2023-04-26T01:28:06.893Z,4.90
2023-04-26T01:30:36.852Z,4.80
2023-04-26T01:33:07.561Z,4.80
2023-04-26T01:35:37.584Z,4.80
2023-04-26T01:38:10.276Z,4.80
2023-04-26T01:40:40.246Z,4.80
2023-04-26T01:43:11.243Z,4.80
2023-04-26T01:45:41.517Z,4.80
2023-04-26T01:48:11.661Z,4.70
2023-04-26T01:50:41.748Z,4.70
2023-04-26T01:53:14.408Z,4.70
2023-04-26T01:55:44.362Z,4.70
2023-04-26T01:58:14.392Z,4.70
2023-04-26T02:00:44.362Z,4.70
2023-04-26T02:03:14.396Z,4.50
2023-04-26T02:05:44.374Z,4.50
2023-04-26T02:08:16.937Z,4.60
2023-04-26T02:10:46.917Z,4.60
2023-04-26T02:13:18.088Z,4.60
2023-04-26T02:15:49.774Z,4.50
2023-04-26T02:18:22.191Z,4.50
2023-04-26T02:20:52.377Z,4.50
2023-04-26T02:23:24.944Z,4.50
2023-04-26T02:25:55.307Z,4.40
2023-04-26T02:28:25.286Z,4.40
2023-04-26T02:30:56.875Z,4.50
2023-04-26T02:33:27.085Z,4.40
2023-04-26T02:35:57.105Z,4.40
2023-04-26T02:38:30.109Z,4.30
2023-04-26T02:41:02.946Z,4.40
2023-04-26T02:43:33.172Z,4.30
2023-04-26T02:46:03.275Z,4.30
2023-04-26T02:48:33.281Z,4.30
2023-04-26T02:51:03.270Z,4.30
2023-04-26T02:53:36.038Z,4.30
2023-04-26T02:56:06.336Z,4.30
2023-04-26T02:58:36.314Z,4.30
2023-04-26T03:01:06.514Z,4.20
2023-04-26T03:03:37.616Z,4.20
2023-04-26T03:06:08.547Z,4.20
2023-04-26T03:08:41.164Z,4.10
2023-04-26T03:11:11.989Z,4.10
2023-04-26T03:13:41.990Z,4.20
2023-04-26T03:16:12.166Z,4.10
2023-04-26T03:18:42.172Z,4.10
2023-04-26T03:21:12.232Z,4.10
2023-04-26T03:23:44.869Z,4.10
2023-04-26T03:26:14.949Z,4.00
2023-04-26T03:28:45.299Z,4.00
2023-04-26T03:31:15.351Z,4.10
2023-04-26T03:33:45.316Z,4.00
2023-04-26T03:36:15.280Z,4.00
2023-04-26T03:38:47.890Z,3.90
2023-04-26T03:41:17.910Z,3.90
2023-04-26T03:43:48.049Z,3.90
2023-04-26T03:46:18.356Z,3.90
2023-04-26T03:48:48.535Z,3.90
2023-04-26T03:51:18.562Z,3.90
2023-04-26T03:53:51.929Z,3.90
2023-04-26T03:56:22.208Z,3.90
2023-04-26T03:58:52.369Z,3.90
2023-04-26T04:01:22.777Z,3.80
2023-04-26T04:03:53.003Z,3.90
2023-04-26T04:06:23.139Z,3.80
2023-04-26T04:08:55.774Z,3.80
2023-04-26T04:11:25.975Z,3.80
2023-04-26T04:13:56.021Z,3.80
2023-04-26T04:16:26.334Z,3.80
2023-04-26T04:18:56.629Z,3.80
2023-04-26T04:21:27.787Z,3.80
2023-04-26T04:24:00.846Z,3.80
2023-04-26T04:26:31.187Z,3.90
2023-04-26T04:29:08.947Z,3.90
2023-04-26T04:31:40.251Z,4.00
2023-04-26T04:34:10.525Z,4.00
2023-04-26T04:36:41.878Z,4.00
2023-04-26T04:39:16.445Z,4.00
2023-04-26T04:41:48.507Z,4.00
2023-04-26T04:44:18.778Z,4.00
2023-04-26T04:46:48.825Z,4.00
2023-04-26T04:49:18.950Z,4.00
2023-04-26T04:51:48.998Z,4.10
2023-04-26T04:54:22.265Z,4.10
2023-04-26T04:56:52.321Z,4.10
2023-04-26T04:59:22.306Z,4.10
2023-04-26T05:01:53.214Z,4.20
2023-04-26T05:04:23.517Z,4.20
2023-04-26T05:06:53.837Z,4.30
2023-04-26T05:09:26.854Z,4.40
2023-04-26T05:11:56.847Z,4.40
2023-04-26T05:14:26.914Z,4.50
2023-04-26T05:16:57.744Z,4.50
2023-04-26T05:19:27.876Z,4.60
2023-04-26T05:21:59.428Z,4.60
2023-04-26T05:24:33.353Z,4.60
2023-04-26T05:27:04.341Z,4.60
2023-04-26T05:29:34.452Z,4.80
2023-04-26T05:32:04.524Z,4.70
2023-04-26T05:34:34.608Z,4.70
2023-04-26T05:37:04.582Z,4.70
2023-04-26T05:39:37.161Z,4.80
2023-04-26T05:42:07.524Z,5.10
2023-04-26T05:44:37.548Z,5.10
2023-04-26T05:47:07.756Z,5.10
2023-04-26T05:49:37.721Z,5.10
2023-04-26T05:52:08.348Z,5.10
2023-04-26T05:54:40.916Z,5.10
2023-04-26T05:57:10.930Z,5.20
2023-04-26T05:59:41.432Z,5.30
2023-04-26T06:02:11.724Z,5.30
2023-04-26T06:04:41.948Z,5.50
2023-04-26T06:07:12.109Z,5.50
2023-04-26T06:09:44.665Z,5.30
2023-04-26T06:12:14.686Z,5.50
2023-04-26T06:14:44.668Z,5.60
2023-04-26T06:17:14.747Z,5.80
2023-04-26T06:19:44.795Z,5.90
2023-04-26T06:22:14.757Z,6.00
2023-04-26T06:24:47.318Z,6.20
2023-04-26T06:27:17.936Z,6.20
2023-04-26T06:29:47.915Z,6.00
2023-04-26T06:32:17.883Z,6.10
2023-04-26T06:34:48.282Z,6.10
2023-04-26T06:37:18.450Z,6.10
2023-04-26T06:39:51.029Z,6.10
2023-04-26T06:42:21.037Z,6.30
2023-04-26T06:44:51.042Z,6.60
2023-04-26T06:47:21.079Z,6.40
2023-04-26T06:49:51.919Z,6.30
2023-04-26T06:52:21.929Z,6.50
2023-04-26T06:54:57.293Z,6.60
2023-04-26T06:57:27.795Z,6.80
2023-04-26T06:59:58.308Z,6.70
2023-04-26T07:02:28.683Z,6.60
2023-04-26T07:04:58.859Z,6.60
2023-04-26T07:07:29.084Z,6.70
2023-04-26T07:10:01.729Z,6.40
2023-04-26T07:12:32.284Z,6.40
2023-04-26T07:15:02.326Z,6.70
2023-04-26T07:17:32.568Z,6.90
2023-04-26T07:20:02.588Z,7.00
2023-04-26T07:22:32.624Z,6.80
2023-04-26T07:25:05.515Z,7.30
2023-04-26T07:27:35.560Z,7.20
2023-04-26T07:30:06.429Z,7.10
2023-04-26T07:32:36.613Z,7.40
2023-04-26T07:35:15.206Z,7.60
2023-04-26T07:37:46.330Z,7.60
2023-04-26T07:40:20.064Z,7.40
2023-04-26T07:42:50.059Z,7.50
2023-04-26T07:45:20.310Z,7.50
2023-04-26T07:47:50.637Z,7.20
2023-04-26T07:50:20.771Z,7.30
2023-04-26T07:52:51.467Z,7.50
2023-04-26T07:55:24.592Z,7.40
2023-04-26T07:57:54.559Z,7.40
2023-04-26T08:00:25.070Z,7.40
2023-04-26T08:02:55.400Z,7.40
2023-04-26T08:05:25.836Z,7.50
2023-04-26T08:07:55.997Z,7.50
2023-04-26T08:10:28.539Z,7.30
2023-04-26T08:13:03.264Z,7.70
2023-04-26T08:15:33.197Z,7.60
2023-04-26T08:18:03.227Z,7.50
2023-04-26T08:20:34.345Z,7.40
2023-04-26T08:23:04.433Z,7.50
2023-04-26T08:25:37.482Z,7.80
2023-04-26T08:28:08.774Z,7.80
2023-04-26T08:30:38.896Z,7.90
2023-04-26T08:33:09.063Z,7.70
2023-04-26T08:35:39.287Z,7.50
2023-04-26T08:38:09.240Z,7.60
2023-04-26T08:40:41.982Z,8.10
2023-04-26T08:43:13.991Z,8.40
2023-04-26T08:45:44.372Z,8.10
2023-04-26T08:48:16.399Z,8.00
2023-04-26T08:50:48.231Z,7.70
2023-04-26T08:53:19.797Z,7.60
2023-04-26T08:55:54.050Z,7.60
2023-04-26T08:58:25.325Z,7.70
2023-04-26T09:00:55.813Z,8.00
2023-04-26T09:03:27.049Z,8.30
2023-04-26T09:05:57.617Z,8.30
2023-04-26T09:08:28.425Z,8.20
2023-04-26T09:11:01.055Z,8.00
2023-04-26T09:13:32.347Z,7.90
2023-04-26T09:16:04.781Z,8.00
2023-04-26T09:18:35.253Z,7.90
2023-04-26T09:21:08.714Z,8.00
2023-04-26T09:23:38.756Z,8.20
2023-04-26T09:26:25.211Z,8.10
2023-04-26T09:29:15.405Z,8.10
2023-04-26T09:31:49.795Z,7.90
2023-04-26T09:34:20.282Z,7.70
2023-04-26T09:36:52.083Z,7.40
2023-04-26T09:39:36.027Z,7.60
2023-04-26T09:42:09.417Z,7.70
2023-04-26T09:44:39.594Z,7.90
2023-04-26T09:47:12.069Z,8.30
2023-04-26T09:49:51.913Z,8.60
2023-04-26T09:52:22.591Z,8.90
2023-04-26T09:54:55.103Z,8.80
2023-04-26T09:57:27.732Z,8.90
2023-04-26T09:59:57.999Z,8.70
2023-04-26T10:02:30.528Z,8.80
2023-04-26T10:05:02.270Z,8.70
2023-04-26T10:07:33.827Z,8.50
2023-04-26T10:10:04.933Z,8.30
2023-04-26T10:12:37.667Z,8.30
2023-04-26T10:15:10.356Z,8.30
2023-04-26T10:17:40.788Z,8.20
2023-04-26T10:20:16.372Z,8.20
2023-04-26T10:22:54.524Z,8.20
2023-04-26T10:25:37.692Z,8.40
2023-04-26T10:28:10.724Z,8.80
2023-04-26T10:30:58.975Z,9.10
2023-04-26T10:33:29.527Z,8.90
2023-04-26T10:36:12.339Z,8.50
2023-04-26T10:38:45.009Z,8.90
2023-04-26T10:41:34.348Z,8.70
2023-04-26T10:44:45.868Z,8.70
2023-04-26T10:47:29.852Z,8.70
2023-04-26T10:50:11.737Z,8.80
2023-04-26T10:53:10.698Z,9.00
2023-04-26T10:55:44.454Z,9.10
2023-04-26T10:58:36.306Z,9.50
2023-04-26T11:01:11.941Z,9.20
2023-04-26T11:03:43.913Z,9.00
2023-04-26T11:06:15.817Z,9.00
2023-04-26T11:08:50.902Z,8.90
2023-04-26T11:11:22.438Z,8.80
2023-04-26T11:13:52.385Z,8.60
2023-04-26T11:16:22.791Z,8.50
2023-04-26T11:18:52.942Z,8.60
2023-04-26T11:21:25.478Z,8.60
2023-04-26T11:24:01.153Z,8.80
2023-04-26T11:26:37.252Z,8.70
2023-04-26T11:29:13.594Z,8.80
2023-04-26T11:31:43.618Z,9.20
2023-04-26T11:34:14.084Z,9.70
2023-04-26T11:36:44.055Z,9.30
2023-04-26T11:39:17.008Z,9.30
2023-04-26T11:41:46.976Z,9.20
2023-04-26T11:44:21.400Z,9.30
2023-04-26T11:46:52.009Z,9.20
2023-04-26T11:49:22.302Z,9.20
2023-04-26T11:51:52.524Z,9.10
2023-04-26T11:54:37.859Z,9.50
2023-04-26T11:57:17.931Z,9.50
2023-04-26T11:59:48.658Z,9.80
2023-04-26T12:02:20.843Z,9.50
2023-04-26T12:04:51.914Z,9.30
2023-04-26T12:07:22.477Z,9.30
2023-04-26T12:09:55.050Z,9.30
2023-04-26T12:12:27.073Z,9.50
2023-04-26T12:14:57.190Z,9.60
2023-04-26T12:17:27.302Z,9.70
2023-04-26T12:19:57.404Z,9.80
2023-04-26T12:22:27.520Z,9.60
2023-04-26T12:25:11.781Z,9.70
2023-04-26T12:27:42.573Z,10.40
2023-04-26T12:30:13.726Z,9.90
2023-04-26T12:32:43.728Z,10.30
2023-04-26T12:35:13.756Z,10.00
2023-04-26T12:37:43.793Z,10.10
2023-04-26T12:40:16.997Z,10.30
2023-04-26T12:42:46.969Z,10.60
2023-04-26T12:45:16.971Z,11.00
2023-04-26T12:47:47.618Z,10.80
2023-04-26T12:50:18.833Z,10.80
2023-04-26T12:52:49.136Z,10.40
2023-04-26T12:55:22.656Z,10.30
2023-04-26T12:57:52.653Z,10.10
2023-04-26T13:00:23.412Z,10.10
2023-04-26T13:02:53.732Z,10.10
2023-04-26T13:05:25.616Z,10.10
2023-04-26T13:07:55.692Z,9.80
2023-04-26T13:10:28.302Z,9.90
2023-04-26T13:12:58.655Z,10.30
2023-04-26T13:15:29.967Z,10.40
2023-04-26T13:18:00.152Z,10.80
2023-04-26T13:20:31.052Z,10.60
2023-04-26T13:23:01.138Z,10.90
2023-04-26T13:25:33.771Z,11.00
2023-04-26T13:28:03.802Z,10.30
2023-04-26T13:30:34.245Z,10.30
2023-04-26T13:33:04.994Z,10.10
2023-04-26T13:35:35.039Z,10.00
2023-04-26T13:38:05.002Z,10.00
2023-04-26T13:40:37.605Z,9.80
2023-04-26T13:43:07.606Z,9.90
2023-04-26T13:45:37.576Z,9.90
2023-04-26T13:48:08.008Z,10.00
2023-04-26T13:50:39.099Z,9.90
2023-04-26T13:53:09.073Z,10.20
2023-04-26T13:55:42.206Z,10.30
2023-04-26T13:58:12.301Z,10.20
2023-04-26T14:00:42.425Z,10.40
2023-04-26T14:03:12.587Z,10.60
2023-04-26T14:05:42.683Z,10.30
2023-04-26T14:08:12.886Z,10.20
2023-04-26T14:10:45.570Z,10.10
2023-04-26T14:13:16.032Z,9.80
2023-04-26T14:15:46.015Z,9.80
2023-04-26T14:18:16.524Z,9.70
2023-04-26T14:20:46.973Z,9.70
2023-04-26T14:23:17.151Z,9.60
2023-04-26T14:25:49.728Z,9.60
2023-04-26T14:28:19.727Z,9.60
2023-04-26T14:30:49.831Z,10.00
2023-04-26T14:33:19.823Z,10.00
2023-04-26T14:35:50.316Z,10.00
2023-04-26T14:38:21.323Z,9.90
2023-04-26T14:40:53.889Z,9.90
2023-04-26T14:43:24.126Z,9.90
2023-04-26T14:45:54.135Z,9.90
2023-04-26T14:48:24.127Z,9.80
2023-04-26T14:51:01.444Z,9.90
2023-04-26T14:53:31.663Z,10.20
2023-04-26T14:56:07.544Z,10.40
2023-04-26T14:58:37.695Z,10.20
2023-04-26T15:01:08.209Z,10.10
2023-04-26T15:03:38.478Z,10.20
2023-04-26T15:06:10.930Z,10.30
2023-04-26T15:08:40.893Z,10.60
2023-04-26T15:11:13.455Z,10.60
2023-04-26T15:13:43.419Z,10.30
2023-04-26T15:16:13.571Z,10.30
2023-04-26T15:18:43.748Z,10.60
2023-04-26T15:21:19.546Z,10.40
2023-04-26T15:23:49.565Z,10.20
2023-04-26T15:26:22.100Z,10.20
2023-04-26T15:28:52.404Z,10.20
2023-04-26T15:31:24.432Z,10.20
2023-04-26T15:33:56.510Z,10.00
2023-04-26T15:36:26.461Z,10.00
2023-04-26T15:38:56.676Z,10.00
2023-04-26T15:41:29.261Z,9.80
2023-04-26T15:43:59.948Z,9.70
2023-04-26T15:46:31.071Z,9.60
2023-04-26T15:49:04.046Z,9.60
2023-04-26T15:51:49.602Z,9.50
2023-04-26T15:54:27.370Z,9.50
2023-04-26T15:57:00.043Z,9.40
2023-04-26T15:59:30.794Z,9.20
2023-04-26T16:02:00.864Z,9.20
2023-04-26T16:04:31.414Z,9.20
2023-04-26T16:07:01.496Z,9.20
2023-04-26T16:09:31.789Z,9.10
2023-04-26T16:12:05.655Z,8.90
2023-04-26T16:14:35.933Z,8.90
2023-04-26T16:17:06.370Z,8.90
2023-04-26T16:19:36.362Z,8.90
2023-04-26T16:22:06.507Z,8.80
2023-04-26T16:24:36.534Z,8.90
2023-04-26T16:27:09.575Z,8.90
2023-04-26T16:29:39.615Z,8.90
2023-04-26T16:32:09.598Z,9.00
2023-04-26T16:34:39.534Z,9.00
2023-04-26T16:37:10.291Z,9.00
2023-04-26T16:39:40.359Z,9.00
2023-04-26T16:42:13.007Z,9.10
2023-04-26T16:44:43.187Z,9.10
2023-04-26T16:47:13.289Z,9.10
2023-04-26T16:49:43.262Z,9.10
2023-04-26T16:52:13.255Z,9.10
2023-04-26T16:54:43.276Z,9.10
2023-04-26T16:57:15.838Z,9.00
2023-04-26T16:59:46.474Z,9.00
2023-04-26T17:02:16.632Z,9.00
2023-04-26T17:04:47.511Z,9.00
2023-04-26T17:07:17.653Z,9.00
2023-04-26T17:09:47.642Z,9.00
2023-04-26T17:12:20.206Z,9.00
2023-04-26T17:14:50.209Z,9.00
2023-04-26T17:17:20.195Z,9.00
2023-04-26T17:19:50.192Z,9.00
2023-04-26T17:22:20.193Z,9.00
2023-04-26T17:24:50.201Z,9.00
2023-04-26T17:27:24.910Z,9.00
2023-04-26T17:29:54.790Z,9.00
2023-04-26T17:32:24.864Z,9.00
2023-04-26T17:34:55.255Z,9.00
2023-04-26T17:37:25.238Z,9.10
2023-04-26T17:39:55.206Z,9.10
2023-04-26T17:42:28.830Z,9.10
2023-04-26T17:44:58.777Z,9.10
2023-04-26T17:47:28.800Z,9.10
2023-04-26T17:49:58.787Z,9.20
2023-04-26T17:52:29.155Z,9.20
2023-04-26T17:54:59.092Z,9.20
2023-04-26T17:57:31.670Z,9.20
2023-04-26T18:00:01.630Z,9.20
2023-04-26T18:02:31.795Z,9.10
2023-04-26T18:05:02.259Z,9.10
2023-04-26T18:07:32.345Z,9.10
2023-04-26T18:10:02.320Z,9.10
2023-04-26T18:12:35.527Z,9.00
2023-04-26T18:15:05.735Z,9.00
2023-04-26T18:17:36.319Z,9.00
2023-04-26T18:20:06.738Z,8.90
2023-04-26T18:22:36.708Z,8.80
2023-04-26T18:25:07.782Z,8.80
2023-04-26T18:27:40.342Z,8.80
2023-04-26T18:30:12.986Z,8.80
2023-04-26T18:32:43.033Z,8.70
2023-04-26T18:35:14.219Z,8.70
2023-04-26T18:37:44.164Z,8.70
2023-04-26T18:40:15.896Z,8.60
2023-04-26T18:42:48.455Z,8.50
2023-04-26T18:45:19.245Z,8.50
2023-04-26T18:47:49.262Z,8.50
2023-04-26T18:50:19.467Z,8.40
2023-04-26T18:52:49.447Z,8.40
2023-04-26T18:55:19.851Z,8.30
2023-04-26T18:57:52.409Z,8.30
2023-04-26T19:00:23.257Z,8.20
2023-04-26T19:02:53.570Z,8.10
2023-04-26T19:05:23.888Z,8.10
2023-04-26T19:07:55.257Z,8.10
2023-04-26T19:10:25.828Z,8.00
2023-04-26T19:12:58.397Z,8.00
2023-04-26T19:15:28.536Z,7.90
2023-04-26T19:17:58.677Z,7.90
2023-04-26T19:20:29.686Z,8.00
2023-04-26T19:22:59.646Z,7.90
2023-04-26T19:25:30.621Z,7.90
2023-04-26T19:28:04.555Z,7.90
2023-04-26T19:30:34.596Z,7.90
2023-04-26T19:33:04.590Z,7.90
2023-04-26T19:35:34.589Z,7.90
2023-04-26T19:38:06.849Z,7.90
2023-04-26T19:40:38.831Z,7.80
2023-04-26T19:43:11.514Z,7.80
2023-04-26T19:45:42.108Z,7.80
2023-04-26T19:48:12.824Z,7.70
2023-04-26T19:50:44.030Z,7.70
2023-04-26T19:53:15.786Z,7.70
2023-04-26T19:55:46.085Z,7.70
2023-04-26T19:58:18.729Z,7.70
2023-04-26T20:00:48.719Z,7.70
2023-04-26T20:03:18.890Z,7.70
2023-04-26T20:05:49.511Z,7.60
2023-04-26T20:08:19.614Z,7.50
2023-04-26T20:10:49.616Z,7.50
2023-04-26T20:13:22.459Z,7.50
2023-04-26T20:15:52.418Z,7.40
2023-04-26T20:18:22.813Z,7.30
2023-04-26T20:20:53.068Z,7.40
2023-04-26T20:23:23.159Z,7.30
2023-04-26T20:25:54.440Z,7.30
2023-04-26T20:28:27.193Z,7.10
2023-04-26T20:30:57.228Z,7.10
2023-04-26T20:33:27.325Z,7.10
2023-04-26T20:35:57.391Z,7.10
2023-04-26T20:38:27.476Z,7.00
2023-04-26T20:40:57.510Z,7.00
2023-04-26T20:43:30.092Z,7.00
2023-04-26T20:46:00.257Z,7.00
2023-04-26T20:48:30.268Z,7.00
2023-04-26T20:51:02.108Z,7.00
2023-04-26T20:53:32.271Z,6.90
2023-04-26T20:56:02.292Z,6.90
2023-04-26T20:58:34.911Z,6.90
2023-04-26T21:01:07.184Z,6.90
2023-04-26T21:03:39.155Z,7.00
2023-04-26T21:06:09.515Z,6.90
2023-04-26T21:08:40.692Z,6.90
2023-04-26T21:11:10.644Z,6.90
2023-04-26T21:13:43.182Z,6.90
2023-04-26T21:16:13.209Z,7.00
2023-04-26T21:18:43.341Z,6.90
2023-04-26T21:21:13.505Z,6.80
2023-04-26T21:23:43.468Z,6.80
2023-04-26T21:26:13.470Z,6.70
2023-04-26T21:28:46.496Z,6.70
2023-04-26T21:31:16.556Z,6.70
2023-04-26T21:33:46.578Z,6.60
2023-04-26T21:36:16.582Z,6.60
2023-04-26T21:38:46.557Z,6.60
2023-04-26T21:41:16.573Z,6.60
2023-04-26T21:43:50.329Z,6.40
2023-04-26T21:46:20.342Z,6.40
2023-04-26T21:48:50.348Z,6.40
2023-04-26T21:51:20.327Z,6.50
2023-04-26T21:53:50.585Z,6.30
2023-04-26T21:56:20.640Z,6.30
2023-04-26T21:58:53.191Z,6.40
2023-04-26T22:01:23.226Z,6.40
2023-04-26T22:03:53.244Z,6.30
2023-04-26T22:06:23.277Z,6.30
2023-04-26T22:08:53.271Z,6.30
2023-04-26T22:11:23.303Z,6.30
2023-04-26T22:13:55.865Z,6.30
2023-04-26T22:16:26.223Z,6.30
2023-04-26T22:18:56.222Z,6.30
2023-04-26T22:21:26.930Z,6.30
2023-04-26T22:23:57.277Z,6.20
2023-04-26T22:26:27.336Z,6.20
2023-04-26T22:28:59.937Z,6.10
2023-04-26T22:31:29.918Z,6.10
2023-04-26T22:33:59.927Z,6.00
2023-04-26T22:36:30.031Z,6.10
2023-04-26T22:39:00.352Z,6.10
2023-04-26T22:41:30.689Z,6.10
2023-04-26T22:44:03.265Z,6.10
2023-04-26T22:46:33.307Z,6.00
2023-04-26T22:49:03.377Z,5.90
2023-04-26T22:51:33.429Z,6.00
2023-04-26T22:54:06.700Z,6.00
2023-04-26T22:56:36.789Z,6.00
2023-04-26T22:59:09.498Z,6.00
2023-04-26T23:01:39.685Z,6.10
2023-04-26T23:04:09.766Z,6.10
2023-04-26T23:06:39.813Z,6.00
2023-04-26T23:09:10.016Z,6.00
2023-04-26T23:11:40.495Z,6.00
2023-04-26T23:14:13.014Z,6.00
2023-04-26T23:16:43.050Z,6.10
2023-04-26T23:19:13.430Z,6.00
2023-04-26T23:21:43.627Z,6.00
2023-04-26T23:24:13.601Z,5.90
2023-04-26T23:26:43.598Z,6.00
2023-04-26T23:29:16.162Z,6.00
2023-04-26T23:31:46.165Z,6.10
2023-04-26T23:34:16.136Z,6.10
2023-04-26T23:36:46.168Z,6.20
2023-04-26T23:39:16.139Z,6.20
2023-04-26T23:41:46.179Z,6.20
2023-04-26T23:44:18.727Z,6.30
2023-04-26T23:46:48.759Z,6.30
2023-04-26T23:49:18.789Z,6.30
2023-04-26T23:51:48.731Z,6.30
2023-04-26T23:54:18.746Z,6.40
2023-04-26T23:56:48.762Z,6.40
2023-04-26T23:59:21.358Z,6.40
